sensor_id;sensor_type;location;lat;lon;timestamp;temperature;humidity
6244;DHT22;3155;49.940;8.450;2022-09-20T01:12:56;15.90;99.90
6244;DHT22;3155;49.940;8.450;2022-09-20T01:15:31;7.70;99.90
6244;DHT22;3155;49.940;8.450;2022-09-20T01:18:00;7.50;99.90
6244;DHT22;3155;49.940;8.450;2022-09-20T01:20:31;7.40;99.90
6244;DHT22;3155;49.940;8.450;2022-09-20T01:23:21;7.30;99.90
6244;DHT22;3155;49.940;8.450;2022-09-20T01:28:49;7.40;99.90
6244;DHT22;3155;49.940;8.450;2022-09-20T01:31:32;7.40;99.90
6244;DHT22;3155;49.940;8.450;2022-09-20T01:34:07;7.40;99.90
6244;DHT22;3155;49.940;8.450;2022-09-20T01:43:28;8.00;99.90
6244;DHT22;3155;49.940;8.450;2022-09-20T01:46:00;8.00;99.90
6244;DHT22;3155;49.940;8.450;2022-09-20T01:48:34;7.90;99.90
6244;DHT22;3155;49.940;8.450;2022-09-20T01:54:29;7.80;99.90
6244;DHT22;3155;49.940;8.450;2022-09-20T02:02:49;7.40;99.90
6244;DHT22;3155;49.940;8.450;2022-09-20T02:13:31;7.40;99.90
6244;DHT22;3155;49.940;8.450;2022-09-20T02:16:29;7.30;99.90
6244;DHT22;3155;49.940;8.450;2022-09-20T02:19:32;7.30;99.90
6244;DHT22;3155;49.940;8.450;2022-09-20T02:22:34;7.30;99.90
6244;DHT22;3155;49.940;8.450;2022-09-20T02:29:20;7.10;99.90
6244;DHT22;3155;49.940;8.450;2022-09-20T02:39:36;6.90;99.90
6244;DHT22;3155;49.940;8.450;2022-09-20T02:42:22;6.80;99.90
6244;DHT22;3155;49.940;8.450;2022-09-20T02:45:17;6.70;99.90
6244;DHT22;3155;49.940;8.450;2022-09-20T02:47:46;6.70;99.90
6244;DHT22;3155;49.940;8.450;2022-09-20T02:53:10;6.80;99.90
6244;DHT22;3155;49.940;8.450;2022-09-20T02:59:02;6.80;99.90
6244;DHT22;3155;49.940;8.450;2022-09-20T03:04:10;6.90;99.90
6244;DHT22;3155;49.940;8.450;2022-09-20T03:25:56;6.40;99.90
6244;DHT22;3155;49.940;8.450;2022-09-20T03:28:45;6.40;99.90
6244;DHT22;3155;49.940;8.450;2022-09-20T03:42:14;6.30;99.90
6244;DHT22;3155;49.940;8.450;2022-09-20T03:47:54;6.40;99.90
6244;DHT22;3155;49.940;8.450;2022-09-20T03:53:44;6.70;99.90
6244;DHT22;3155;49.940;8.450;2022-09-20T03:59:17;6.80;99.90
6244;DHT22;3155;49.940;8.450;2022-09-20T04:04:39;6.90;99.90
6244;DHT22;3155;49.940;8.450;2022-09-20T04:10:28;7.00;99.90
6244;DHT22;3155;49.940;8.450;2022-09-20T04:13:24;7.00;99.90
6244;DHT22;3155;49.940;8.450;2022-09-20T04:16:04;7.10;99.90
6244;DHT22;3155;49.940;8.450;2022-09-20T04:18:37;7.10;99.90
6244;DHT22;3155;49.940;8.450;2022-09-20T04:21:17;7.10;99.90
6244;DHT22;3155;49.940;8.450;2022-09-20T04:26:25;7.10;99.90
6244;DHT22;3155;49.940;8.450;2022-09-20T04:32:11;7.10;99.90
6244;DHT22;3155;49.940;8.450;2022-09-20T04:34:45;7.10;99.90
6244;DHT22;3155;49.940;8.450;2022-09-20T04:37:35;7.00;99.90
6244;DHT22;3155;49.940;8.450;2022-09-20T04:45:53;6.70;99.90
6244;DHT22;3155;49.940;8.450;2022-09-20T05:28:01;6.10;99.90
6244;DHT22;3155;49.940;8.450;2022-09-20T05:30:45;6.10;99.90
6244;DHT22;3155;49.940;8.450;2022-09-20T05:33:28;6.10;99.90
6244;DHT22;3155;49.940;8.450;2022-09-20T05:41:58;6.20;99.90
6244;DHT22;3155;49.940;8.450;2022-09-20T05:47:40;6.20;99.90
6244;DHT22;3155;49.940;8.450;2022-09-20T05:59:20;6.90;99.90
6244;DHT22;3155;49.940;8.450;2022-09-20T06:02:09;7.10;99.90
6244;DHT22;3155;49.940;8.450;2022-09-20T06:05:15;7.20;99.90
6244;DHT22;3155;49.940;8.450;2022-09-20T06:08:07;7.30;99.90
6244;DHT22;3155;49.940;8.450;2022-09-20T06:13:34;7.50;99.90
6244;DHT22;3155;49.940;8.450;2022-09-20T06:16:06;7.60;99.90
6244;DHT22;3155;49.940;8.450;2022-09-20T06:18:46;7.70;99.90
6244;DHT22;3155;49.940;8.450;2022-09-20T06:21:38;7.70;99.90
6244;DHT22;3155;49.940;8.450;2022-09-20T06:24:36;7.80;99.90
6244;DHT22;3155;49.940;8.450;2022-09-20T06:27:11;7.80;99.90
6244;DHT22;3155;49.940;8.450;2022-09-20T06:29:46;7.90;99.90
6244;DHT22;3155;49.940;8.450;2022-09-20T06:32:17;8.00;99.90
6244;DHT22;3155;49.940;8.450;2022-09-20T06:34:45;8.00;99.90
6244;DHT22;3155;49.940;8.450;2022-09-20T06:43:19;9.20;99.90
6244;DHT22;3155;49.940;8.450;2022-09-20T06:45:46;9.20;99.90
6244;DHT22;3155;49.940;8.450;2022-09-20T06:48:14;9.30;99.90
6244;DHT22;3155;49.940;8.450;2022-09-20T07:08:15;10.90;99.90
6244;DHT22;3155;49.940;8.450;2022-09-20T07:10:44;15.50;99.90
6244;DHT22;3155;49.940;8.450;2022-09-20T09:37:54;17.10;99.90
6244;DHT22;3155;49.940;8.450;2022-09-20T09:40:30;17.40;99.90
6244;DHT22;3155;49.940;8.450;2022-09-20T09:43:01;18.00;99.90
6244;DHT22;3155;49.940;8.450;2022-09-20T09:45:36;18.60;99.90
6244;DHT22;3155;49.940;8.450;2022-09-20T09:48:26;19.20;99.90
6244;DHT22;3155;49.940;8.450;2022-09-20T09:51:13;19.90;99.90
6244;DHT22;3155;49.940;8.450;2022-09-20T09:56:38;20.80;99.90
6244;DHT22;3155;49.940;8.450;2022-09-20T10:05:18;19.70;99.90
6244;DHT22;3155;49.940;8.450;2022-09-20T10:20:14;16.00;99.90
6244;DHT22;3155;49.940;8.450;2022-09-20T10:28:56;15.70;99.90
6244;DHT22;3155;49.940;8.450;2022-09-20T10:37:39;16.80;99.90
6244;DHT22;3155;49.940;8.450;2022-09-20T10:40:20;16.90;99.90
6244;DHT22;3155;49.940;8.450;2022-09-20T10:43:05;17.30;99.90
6244;DHT22;3155;49.940;8.450;2022-09-20T10:54:58;21.70;99.90
6244;DHT22;3155;49.940;8.450;2022-09-20T11:00:22;22.80;99.90
6244;DHT22;3155;49.940;8.450;2022-09-20T11:06:09;18.60;99.90
6244;DHT22;3155;49.940;8.450;2022-09-20T11:08:39;16.30;99.90
6244;DHT22;3155;49.940;8.450;2022-09-20T11:16:49;13.70;99.90
6244;DHT22;3155;49.940;8.450;2022-09-20T11:22:29;14.40;99.90
6244;DHT22;3155;49.940;8.450;2022-09-20T11:25:15;15.20;99.90
6244;DHT22;3155;49.940;8.450;2022-09-20T11:30:21;16.50;99.90
6244;DHT22;3155;49.940;8.450;2022-09-20T11:35:47;17.90;99.90
6244;DHT22;3155;49.940;8.450;2022-09-20T11:38:21;18.30;99.90
6244;DHT22;3155;49.940;8.450;2022-09-20T11:41:12;18.90;99.90
6244;DHT22;3155;49.940;8.450;2022-09-20T11:43:40;19.50;99.90
6244;DHT22;3155;49.940;8.450;2022-09-20T11:46:14;19.40;99.90
6244;DHT22;3155;49.940;8.450;2022-09-20T11:48:58;19.00;99.90
6244;DHT22;3155;49.940;8.450;2022-09-20T11:51:37;18.00;99.90
6244;DHT22;3155;49.940;8.450;2022-09-20T11:56:52;16.20;99.90
6244;DHT22;3155;49.940;8.450;2022-09-20T11:59:38;15.80;99.90
6244;DHT22;3155;49.940;8.450;2022-09-20T12:04:50;15.70;99.90
6244;DHT22;3155;49.940;8.450;2022-09-20T12:07:23;16.70;99.90
6244;DHT22;3155;49.940;8.450;2022-09-20T12:09:59;18.00;99.90
6244;DHT22;3155;49.940;8.450;2022-09-20T12:12:39;19.10;99.90
6244;DHT22;3155;49.940;8.450;2022-09-20T12:15:36;19.80;99.90
6244;DHT22;3155;49.940;8.450;2022-09-20T12:18:30;20.30;99.90
6244;DHT22;3155;49.940;8.450;2022-09-20T12:28:56;20.70;99.90
6244;DHT22;3155;49.940;8.450;2022-09-20T12:36:43;21.20;99.90
6244;DHT22;3155;49.940;8.450;2022-09-20T12:41:46;21.70;99.90
6244;DHT22;3155;49.940;8.450;2022-09-20T12:49:41;22.40;99.90
6244;DHT22;3155;49.940;8.450;2022-09-20T12:55:34;23.10;99.90
6244;DHT22;3155;49.940;8.450;2022-09-20T12:58:18;23.40;99.90
6244;DHT22;3155;49.940;8.450;2022-09-20T13:03:31;22.30;99.90
6244;DHT22;3155;49.940;8.450;2022-09-20T13:19:24;18.80;99.90
6244;DHT22;3155;49.940;8.450;2022-09-20T13:22:05;18.30;99.90
6244;DHT22;3155;49.940;8.450;2022-09-20T13:24:48;18.00;99.90
6244;DHT22;3155;49.940;8.450;2022-09-20T13:27:28;17.80;99.90
6244;DHT22;3155;49.940;8.450;2022-09-20T13:30:16;17.30;99.90
6244;DHT22;3155;49.940;8.450;2022-09-20T13:32:43;16.80;99.90
6244;DHT22;3155;49.940;8.450;2022-09-20T13:35:25;16.40;99.90
6244;DHT22;3155;49.940;8.450;2022-09-20T13:38:07;15.90;99.90
6244;DHT22;3155;49.940;8.450;2022-09-20T13:40:43;15.90;99.90
6244;DHT22;3155;49.940;8.450;2022-09-20T13:43:34;16.10;99.90
6244;DHT22;3155;49.940;8.450;2022-09-20T13:46:17;16.30;99.90
6244;DHT22;3155;49.940;8.450;2022-09-20T13:49:15;16.50;99.90
6244;DHT22;3155;49.940;8.450;2022-09-20T13:51:41;16.70;99.90
6244;DHT22;3155;49.940;8.450;2022-09-20T13:56:51;17.30;99.90
6244;DHT22;3155;49.940;8.450;2022-09-20T13:59:20;17.70;99.90
6244;DHT22;3155;49.940;8.450;2022-09-20T14:01:53;18.10;99.90
6244;DHT22;3155;49.940;8.450;2022-09-20T14:04:23;18.40;99.90
6244;DHT22;3155;49.940;8.450;2022-09-20T14:06:52;18.20;99.90
6244;DHT22;3155;49.940;8.450;2022-09-20T14:09:36;17.90;99.90
6244;DHT22;3155;49.940;8.450;2022-09-20T14:12:05;17.90;99.90
6244;DHT22;3155;49.940;8.450;2022-09-20T14:14:33;18.10;99.90
6244;DHT22;3155;49.940;8.450;2022-09-20T14:17:05;18.40;99.90
6244;DHT22;3155;49.940;8.450;2022-09-20T14:19:37;18.70;99.90
6244;DHT22;3155;49.940;8.450;2022-09-20T14:22:06;18.60;99.90
6244;DHT22;3155;49.940;8.450;2022-09-20T14:24:35;18.60;99.90
6244;DHT22;3155;49.940;8.450;2022-09-20T14:27:22;18.60;99.90
6244;DHT22;3155;49.940;8.450;2022-09-20T14:29:51;18.90;99.90
6244;DHT22;3155;49.940;8.450;2022-09-20T14:37:25;18.50;99.90
6244;DHT22;3155;49.940;8.450;2022-09-20T14:39:54;18.10;99.90
6244;DHT22;3155;49.940;8.450;2022-09-20T14:42:28;17.60;99.90
6244;DHT22;3155;49.940;8.450;2022-09-20T14:44:55;17.10;99.90
6244;DHT22;3155;49.940;8.450;2022-09-20T14:47:27;16.80;99.90
6244;DHT22;3155;49.940;8.450;2022-09-20T14:49:54;16.50;99.90
6244;DHT22;3155;49.940;8.450;2022-09-20T14:55:17;16.00;99.90
6244;DHT22;3155;49.940;8.450;2022-09-20T14:57:46;15.80;99.90
6244;DHT22;3155;49.940;8.450;2022-09-20T15:00:15;15.70;99.90
6244;DHT22;3155;49.940;8.450;2022-09-20T15:02:43;15.60;99.90
6244;DHT22;3155;49.940;8.450;2022-09-20T15:05:19;15.60;99.90
6244;DHT22;3155;49.940;8.450;2022-09-20T15:07:46;15.50;99.90
6244;DHT22;3155;49.940;8.450;2022-09-20T15:10:13;15.50;99.90
6244;DHT22;3155;49.940;8.450;2022-09-20T15:12:41;15.50;99.90
6244;DHT22;3155;49.940;8.450;2022-09-20T15:15:11;15.50;99.90
6244;DHT22;3155;49.940;8.450;2022-09-20T15:17:41;15.60;99.90
6244;DHT22;3155;49.940;8.450;2022-09-20T15:20:12;15.50;99.90
6244;DHT22;3155;49.940;8.450;2022-09-20T15:22:40;15.40;99.90
6244;DHT22;3155;49.940;8.450;2022-09-20T15:25:12;15.30;99.90
6244;DHT22;3155;49.940;8.450;2022-09-20T15:27:40;15.20;99.90
6244;DHT22;3155;49.940;8.450;2022-09-20T15:30:09;15.20;99.90
6244;DHT22;3155;49.940;8.450;2022-09-20T15:32:36;15.20;99.90
6244;DHT22;3155;49.940;8.450;2022-09-20T15:35:04;15.20;99.90
6244;DHT22;3155;49.940;8.450;2022-09-20T15:37:31;15.50;99.90
6244;DHT22;3155;49.940;8.450;2022-09-20T15:39:58;15.70;99.90
6244;DHT22;3155;49.940;8.450;2022-09-20T15:42:25;15.80;99.90
6244;DHT22;3155;49.940;8.450;2022-09-20T15:44:51;16.20;99.90
6244;DHT22;3155;49.940;8.450;2022-09-20T15:47:18;16.80;99.90
6244;DHT22;3155;49.940;8.450;2022-09-20T15:49:50;18.30;99.90
6244;DHT22;3155;49.940;8.450;2022-09-20T15:52:18;19.60;99.90
6244;DHT22;3155;49.940;8.450;2022-09-20T15:54:50;20.20;99.90
6244;DHT22;3155;49.940;8.450;2022-09-20T15:57:17;21.50;99.90
6244;DHT22;3155;49.940;8.450;2022-09-20T15:59:44;22.60;99.90
6244;DHT22;3155;49.940;8.450;2022-09-20T16:02:11;22.90;99.90
6244;DHT22;3155;49.940;8.450;2022-09-20T16:04:39;21.60;99.90
6244;DHT22;3155;49.940;8.450;2022-09-20T16:07:06;19.80;99.90
6244;DHT22;3155;49.940;8.450;2022-09-20T16:09:33;18.60;99.90
6244;DHT22;3155;49.940;8.450;2022-09-20T16:12:01;17.80;99.90
6244;DHT22;3155;49.940;8.450;2022-09-20T16:14:30;17.00;99.90
6244;DHT22;3155;49.940;8.450;2022-09-20T16:16:57;16.50;99.90
6244;DHT22;3155;49.940;8.450;2022-09-20T16:19:24;16.00;99.90
6244;DHT22;3155;49.940;8.450;2022-09-20T16:21:55;15.60;99.90
6244;DHT22;3155;49.940;8.450;2022-09-20T16:24:27;15.40;99.90
6244;DHT22;3155;49.940;8.450;2022-09-20T16:26:54;15.10;99.90
6244;DHT22;3155;49.940;8.450;2022-09-20T16:29:21;14.90;99.90
6244;DHT22;3155;49.940;8.450;2022-09-20T16:31:49;14.70;99.90
6244;DHT22;3155;49.940;8.450;2022-09-20T16:34:25;14.60;99.90
6244;DHT22;3155;49.940;8.450;2022-09-20T16:37:09;14.40;99.90
6244;DHT22;3155;49.940;8.450;2022-09-20T16:39:37;14.20;99.90
6244;DHT22;3155;49.940;8.450;2022-09-20T16:42:05;14.00;99.90
6244;DHT22;3155;49.940;8.450;2022-09-20T16:44:35;13.80;99.90
6244;DHT22;3155;49.940;8.450;2022-09-20T16:47:05;13.70;99.90
6244;DHT22;3155;49.940;8.450;2022-09-20T16:49:34;13.50;99.90
6244;DHT22;3155;49.940;8.450;2022-09-20T16:52:06;13.30;99.90
6244;DHT22;3155;49.940;8.450;2022-09-20T16:54:33;13.20;99.90
6244;DHT22;3155;49.940;8.450;2022-09-20T16:57:06;13.00;99.90
6244;DHT22;3155;49.940;8.450;2022-09-20T16:59:33;12.80;99.90
6244;DHT22;3155;49.940;8.450;2022-09-20T17:02:03;12.70;99.90
6244;DHT22;3155;49.940;8.450;2022-09-20T17:04:30;12.50;99.90
6244;DHT22;3155;49.940;8.450;2022-09-20T17:06:56;12.40;99.90
6244;DHT22;3155;49.940;8.450;2022-09-20T17:09:23;12.30;99.90
6244;DHT22;3155;49.940;8.450;2022-09-20T17:11:50;12.20;99.90
6244;DHT22;3155;49.940;8.450;2022-09-20T17:14:18;12.20;99.90
6244;DHT22;3155;49.940;8.450;2022-09-20T17:16:46;12.10;99.90
6244;DHT22;3155;49.940;8.450;2022-09-20T17:19:16;12.10;99.90
6244;DHT22;3155;49.940;8.450;2022-09-20T17:21:46;12.00;99.90
6244;DHT22;3155;49.940;8.450;2022-09-20T17:24:19;12.00;99.90
6244;DHT22;3155;49.940;8.450;2022-09-20T17:26:50;11.90;99.90
6244;DHT22;3155;49.940;8.450;2022-09-20T17:29:17;11.70;99.90
6244;DHT22;3155;49.940;8.450;2022-09-20T17:31:46;11.60;99.90
6244;DHT22;3155;49.940;8.450;2022-09-20T17:34:20;11.50;99.90
6244;DHT22;3155;49.940;8.450;2022-09-20T17:36:48;11.30;99.90
6244;DHT22;3155;49.940;8.450;2022-09-20T17:41:46;11.20;99.90
6244;DHT22;3155;49.940;8.450;2022-09-20T17:44:13;11.10;99.90
6244;DHT22;3155;49.940;8.450;2022-09-20T17:46:43;10.90;99.90
6244;DHT22;3155;49.940;8.450;2022-09-20T17:49:11;10.90;99.90
6244;DHT22;3155;49.940;8.450;2022-09-20T17:51:41;10.80;99.90
6244;DHT22;3155;49.940;8.450;2022-09-20T17:54:08;10.80;99.90
6244;DHT22;3155;49.940;8.450;2022-09-20T17:56:46;10.90;99.90
6244;DHT22;3155;49.940;8.450;2022-09-20T17:59:15;11.00;99.90
6244;DHT22;3155;49.940;8.450;2022-09-20T18:01:43;11.00;99.90
6244;DHT22;3155;49.940;8.450;2022-09-20T18:04:11;10.90;99.90
6244;DHT22;3155;49.940;8.450;2022-09-20T18:06:48;10.80;99.90
6244;DHT22;3155;49.940;8.450;2022-09-20T18:09:18;10.60;99.90
6244;DHT22;3155;49.940;8.450;2022-09-20T18:11:50;10.40;99.90
6244;DHT22;3155;49.940;8.450;2022-09-20T18:14:26;10.30;99.90
6244;DHT22;3155;49.940;8.450;2022-09-20T18:16:55;10.10;99.90
6244;DHT22;3155;49.940;8.450;2022-09-20T18:19:26;10.00;99.90
6244;DHT22;3155;49.940;8.450;2022-09-20T18:22:00;9.80;99.90
6244;DHT22;3155;49.940;8.450;2022-09-20T18:24:28;9.80;99.90
6244;DHT22;3155;49.940;8.450;2022-09-20T18:26:55;9.70;99.90
6244;DHT22;3155;49.940;8.450;2022-09-20T18:29:22;9.70;99.90
6244;DHT22;3155;49.940;8.450;2022-09-20T18:31:52;9.60;99.90
6244;DHT22;3155;49.940;8.450;2022-09-20T18:34:22;9.60;99.90
6244;DHT22;3155;49.940;8.450;2022-09-20T18:36:53;9.60;99.90
6244;DHT22;3155;49.940;8.450;2022-09-20T18:39:31;9.50;99.90
6244;DHT22;3155;49.940;8.450;2022-09-20T18:41:59;9.40;99.90
6244;DHT22;3155;49.940;8.450;2022-09-20T18:44:26;9.40;99.90
6244;DHT22;3155;49.940;8.450;2022-09-20T18:46:59;9.30;99.90
6244;DHT22;3155;49.940;8.450;2022-09-20T18:49:28;9.30;99.90
6244;DHT22;3155;49.940;8.450;2022-09-20T18:51:59;9.30;99.90
6244;DHT22;3155;49.940;8.450;2022-09-20T18:54:25;9.40;99.90
6244;DHT22;3155;49.940;8.450;2022-09-20T18:56:56;9.40;99.90
6244;DHT22;3155;49.940;8.450;2022-09-20T18:59:24;9.50;99.90
6244;DHT22;3155;49.940;8.450;2022-09-20T19:02:23;9.60;99.90
6244;DHT22;3155;49.940;8.450;2022-09-20T19:05:06;9.80;99.90
6244;DHT22;3155;49.940;8.450;2022-09-20T19:07:52;10.00;99.90
6244;DHT22;3155;49.940;8.450;2022-09-20T19:10:40;10.10;99.90
6244;DHT22;3155;49.940;8.450;2022-09-20T19:13:53;10.20;99.90
6244;DHT22;3155;49.940;8.450;2022-09-20T19:26:59;10.30;99.90
6244;DHT22;3155;49.940;8.450;2022-09-20T19:29:27;10.30;99.90
6244;DHT22;3155;49.940;8.450;2022-09-20T19:31:56;10.30;99.90
6244;DHT22;3155;49.940;8.450;2022-09-20T19:34:28;10.30;99.90
6244;DHT22;3155;49.940;8.450;2022-09-20T19:45:29;10.20;99.90
6244;DHT22;3155;49.940;8.450;2022-09-20T19:48:12;10.30;99.90
6244;DHT22;3155;49.940;8.450;2022-09-20T19:50:44;10.30;99.90
6244;DHT22;3155;49.940;8.450;2022-09-20T19:53:15;10.30;99.90
6244;DHT22;3155;49.940;8.450;2022-09-20T19:55:49;10.40;99.90
6244;DHT22;3155;49.940;8.450;2022-09-20T19:58:17;10.40;99.90
6244;DHT22;3155;49.940;8.450;2022-09-20T20:00:45;10.40;99.90
6244;DHT22;3155;49.940;8.450;2022-09-20T20:03:13;10.40;99.90
6244;DHT22;3155;49.940;8.450;2022-09-20T20:05:47;10.40;99.90
6244;DHT22;3155;49.940;8.450;2022-09-20T20:14:14;10.40;99.90
6244;DHT22;3155;49.940;8.450;2022-09-20T20:25:06;10.40;99.90
6244;DHT22;3155;49.940;8.450;2022-09-20T20:27:41;10.40;99.90
6244;DHT22;3155;49.940;8.450;2022-09-20T20:30:09;10.50;99.90
6244;DHT22;3155;49.940;8.450;2022-09-20T20:32:36;10.50;99.90
6244;DHT22;3155;49.940;8.450;2022-09-20T20:35:03;10.50;99.90
6244;DHT22;3155;49.940;8.450;2022-09-20T20:37:33;10.40;99.90
6244;DHT22;3155;49.940;8.450;2022-09-20T20:39:59;10.40;99.90
6244;DHT22;3155;49.940;8.450;2022-09-20T20:42:29;10.40;99.90
6244;DHT22;3155;49.940;8.450;2022-09-20T20:44:56;10.30;99.90
6244;DHT22;3155;49.940;8.450;2022-09-20T20:47:23;10.30;99.90
6244;DHT22;3155;49.940;8.450;2022-09-20T20:49:50;10.30;99.90
6244;DHT22;3155;49.940;8.450;2022-09-20T20:52:19;10.20;99.90
6244;DHT22;3155;49.940;8.450;2022-09-20T20:54:45;10.20;99.90
6244;DHT22;3155;49.940;8.450;2022-09-20T20:57:12;10.20;99.90
6244;DHT22;3155;49.940;8.450;2022-09-20T20:59:42;10.10;99.90
6244;DHT22;3155;49.940;8.450;2022-09-20T21:02:08;10.00;99.90
6244;DHT22;3155;49.940;8.450;2022-09-20T21:04:35;10.00;99.90
6244;DHT22;3155;49.940;8.450;2022-09-20T21:07:02;10.00;99.90
6244;DHT22;3155;49.940;8.450;2022-09-20T21:09:29;10.00;99.90
6244;DHT22;3155;49.940;8.450;2022-09-20T21:11:57;10.10;99.90
6244;DHT22;3155;49.940;8.450;2022-09-20T21:14:24;10.10;99.90
6244;DHT22;3155;49.940;8.450;2022-09-20T21:16:51;10.00;99.90
6244;DHT22;3155;49.940;8.450;2022-09-20T21:19:17;10.00;99.90
6244;DHT22;3155;49.940;8.450;2022-09-20T21:21:45;10.10;99.90
6244;DHT22;3155;49.940;8.450;2022-09-20T21:24:14;10.10;99.90
6244;DHT22;3155;49.940;8.450;2022-09-20T21:26:45;10.00;99.90
6244;DHT22;3155;49.940;8.450;2022-09-20T21:29:13;9.90;99.90
6244;DHT22;3155;49.940;8.450;2022-09-20T21:31:44;9.70;99.90
6244;DHT22;3155;49.940;8.450;2022-09-20T21:34:13;9.50;99.90
6244;DHT22;3155;49.940;8.450;2022-09-20T21:36:41;9.30;99.90
6244;DHT22;3155;49.940;8.450;2022-09-20T21:39:09;9.10;99.90
6244;DHT22;3155;49.940;8.450;2022-09-20T21:41:40;9.00;99.90
6244;DHT22;3155;49.940;8.450;2022-09-20T21:44:07;8.80;99.90
6244;DHT22;3155;49.940;8.450;2022-09-20T21:46:39;8.80;99.90
6244;DHT22;3155;49.940;8.450;2022-09-20T21:49:08;8.70;99.90
6244;DHT22;3155;49.940;8.450;2022-09-20T21:51:37;8.60;99.90
6244;DHT22;3155;49.940;8.450;2022-09-20T21:54:04;8.50;99.90
6244;DHT22;3155;49.940;8.450;2022-09-20T21:56:34;8.40;99.90
6244;DHT22;3155;49.940;8.450;2022-09-20T21:59:02;8.30;99.90
6244;DHT22;3155;49.940;8.450;2022-09-20T22:01:31;8.10;99.90
6244;DHT22;3155;49.940;8.450;2022-09-20T22:04:06;8.00;99.90
6244;DHT22;3155;49.940;8.450;2022-09-20T22:06:36;7.90;99.90
6244;DHT22;3155;49.940;8.450;2022-09-20T22:09:06;7.80;99.90
6244;DHT22;3155;49.940;8.450;2022-09-20T22:11:53;7.70;99.90
6244;DHT22;3155;49.940;8.450;2022-09-20T22:14:20;7.50;99.90
6244;DHT22;3155;49.940;8.450;2022-09-20T22:16:47;7.50;99.90
6244;DHT22;3155;49.940;8.450;2022-09-20T22:19:17;7.40;99.90
6244;DHT22;3155;49.940;8.450;2022-09-20T22:21:48;7.30;99.90
6244;DHT22;3155;49.940;8.450;2022-09-20T22:24:15;7.30;99.90
6244;DHT22;3155;49.940;8.450;2022-09-20T22:26:47;7.30;99.90
6244;DHT22;3155;49.940;8.450;2022-09-20T22:29:14;7.10;99.90
6244;DHT22;3155;49.940;8.450;2022-09-20T22:31:43;7.10;99.90
6244;DHT22;3155;49.940;8.450;2022-09-20T22:34:15;7.00;99.90
6244;DHT22;3155;49.940;8.450;2022-09-20T22:36:42;6.90;99.90
6244;DHT22;3155;49.940;8.450;2022-09-20T22:39:13;6.90;99.90
6244;DHT22;3155;49.940;8.450;2022-09-20T22:41:40;6.80;99.90
6244;DHT22;3155;49.940;8.450;2022-09-20T22:44:08;6.80;99.90
6244;DHT22;3155;49.940;8.450;2022-09-20T22:46:35;6.80;99.90
6244;DHT22;3155;49.940;8.450;2022-09-20T22:49:07;6.80;99.90
6244;DHT22;3155;49.940;8.450;2022-09-20T22:51:34;6.80;99.90
6244;DHT22;3155;49.940;8.450;2022-09-20T22:54:09;6.80;99.90
6244;DHT22;3155;49.940;8.450;2022-09-20T22:56:39;6.80;99.90
6244;DHT22;3155;49.940;8.450;2022-09-20T22:59:11;6.80;99.90
6244;DHT22;3155;49.940;8.450;2022-09-20T23:01:44;6.80;99.90
6244;DHT22;3155;49.940;8.450;2022-09-20T23:04:33;6.80;99.90
6244;DHT22;3155;49.940;8.450;2022-09-20T23:06:59;6.90;99.90
6244;DHT22;3155;49.940;8.450;2022-09-20T23:09:26;7.10;99.90
6244;DHT22;3155;49.940;8.450;2022-09-20T23:11:53;7.00;99.90
6244;DHT22;3155;49.940;8.450;2022-09-20T23:14:20;7.00;99.90
6244;DHT22;3155;49.940;8.450;2022-09-20T23:16:47;7.00;99.90
6244;DHT22;3155;49.940;8.450;2022-09-20T23:19:15;7.10;99.90
6244;DHT22;3155;49.940;8.450;2022-09-20T23:21:42;7.10;99.90
6244;DHT22;3155;49.940;8.450;2022-09-20T23:24:11;7.10;99.90
6244;DHT22;3155;49.940;8.450;2022-09-20T23:26:41;7.00;99.90
6244;DHT22;3155;49.940;8.450;2022-09-20T23:29:10;6.80;99.90
6244;DHT22;3155;49.940;8.450;2022-09-20T23:31:39;6.70;99.90
6244;DHT22;3155;49.940;8.450;2022-09-20T23:34:07;6.70;99.90
6244;DHT22;3155;49.940;8.450;2022-09-20T23:36:38;6.70;99.90
6244;DHT22;3155;49.940;8.450;2022-09-20T23:39:07;6.60;99.90
6244;DHT22;3155;49.940;8.450;2022-09-20T23:41:34;6.60;99.90
6244;DHT22;3155;49.940;8.450;2022-09-20T23:44:05;6.60;99.90
6244;DHT22;3155;49.940;8.450;2022-09-20T23:46:35;6.60;99.90
6244;DHT22;3155;49.940;8.450;2022-09-20T23:49:05;6.60;99.90
6244;DHT22;3155;49.940;8.450;2022-09-20T23:51:32;6.50;99.90
6244;DHT22;3155;49.940;8.450;2022-09-20T23:54:00;6.40;99.90
6244;DHT22;3155;49.940;8.450;2022-09-20T23:56:28;6.30;99.90
6244;DHT22;3155;49.940;8.450;2022-09-20T23:58:55;6.30;99.90
